Chauncey, Illinois
Current Conditions -  °F | °C
As of 2:53 PM on Saturday 25 Oct 2014 (Local Time) from KLWV Reporting Station
Haze Haze  
Wind Chill: 79°   Ceiling: Unl
Heat Index: 79°   Visibility: 0.5mi
Dew Point: 54°   Wind: 7mph
Humidity: 42%   Direction: 290°WNW
Pressure: 29.98"   Gusts: NA
Location:  38.793°N, 87.8326°W
Report Text: KLWV 251953Z AUTO 29006KT 1/2SM HZ CLR 26/12 A2998 RMK AO2 SLP150 T02610122
Loading
Personal Weather Stations






























Interactive Weather Map
Tropical Storm Tracking
New forecast layout! Learn more

10-Day Weather Forecast

Advertisements
Track Severe Weather on mobile